createdAt,value
2022-10-11T00:00:11.828Z,5.48
2022-10-11T00:02:38.586Z,5.46
2022-10-11T00:05:05.770Z,5.44
2022-10-11T00:07:43.077Z,5.41
2022-10-11T00:10:10.433Z,5.39
2022-10-11T00:12:52.688Z,5.36
2022-10-11T00:15:21.049Z,5.36
2022-10-11T00:17:48.189Z,5.32
2022-10-11T00:20:24.323Z,5.32
2022-10-11T00:23:02.152Z,5.34
2022-10-11T00:25:41.326Z,5.33
2022-10-11T00:28:19.045Z,5.30
2022-10-11T00:30:55.689Z,5.27
2022-10-11T00:34:17.213Z,5.23
2022-10-11T00:36:45.253Z,5.21
2022-10-11T00:39:23.525Z,5.20
2022-10-11T00:42:01.852Z,5.15
2022-10-11T00:44:48.592Z,5.13
2022-10-11T00:47:27.848Z,5.11
2022-10-11T00:50:10.045Z,5.08
2022-10-11T00:52:49.938Z,5.06
2022-10-11T00:55:31.402Z,5.04
2022-10-11T00:58:08.556Z,5.02
2022-10-11T01:00:47.031Z,4.99
2022-10-11T01:03:27.345Z,4.96
2022-10-11T01:06:08.171Z,4.94
2022-10-11T01:08:46.570Z,4.93
2022-10-11T01:11:24.084Z,4.91
2022-10-11T01:14:02.794Z,4.91
2022-10-11T01:16:52.004Z,4.90
2022-10-11T01:19:38.556Z,4.90
2022-10-11T01:22:16.693Z,4.91
2022-10-11T01:25:01.623Z,4.89
2022-10-11T01:27:55.893Z,4.87
2022-10-11T01:30:33.102Z,4.82
2022-10-11T01:33:28.797Z,4.82
2022-10-11T01:36:14.161Z,4.78
2022-10-11T01:38:56.652Z,4.73
2022-10-11T01:41:46.894Z,4.70
2022-10-11T01:44:27.221Z,4.67
2022-10-11T01:47:04.796Z,4.62
2022-10-11T01:49:43.207Z,4.68
2022-10-11T01:52:21.724Z,4.85
2022-10-11T01:55:23.133Z,4.97
2022-10-11T01:58:08.845Z,5.07
2022-10-11T02:01:09.332Z,5.15
2022-10-11T02:03:56.349Z,5.09
2022-10-11T02:06:54.391Z,5.14
2022-10-11T02:09:37.247Z,5.09
2022-10-11T02:12:22.797Z,5.00
2022-10-11T02:15:02.659Z,4.91
2022-10-11T02:17:42.010Z,4.87
2022-10-11T02:20:23.411Z,4.88
2022-10-11T02:23:06.075Z,4.88
2022-10-11T02:25:47.447Z,4.85
2022-10-11T02:28:28.416Z,4.84
2022-10-11T02:31:08.773Z,4.93
2022-10-11T02:33:53.926Z,4.96
2022-10-11T02:36:51.953Z,4.91
2022-10-11T02:39:41.889Z,4.83
2022-10-11T02:42:26.998Z,4.80
2022-10-11T02:45:07.920Z,4.80
2022-10-11T02:47:47.865Z,4.89
2022-10-11T02:50:25.191Z,4.96
2022-10-11T02:53:04.826Z,4.97
2022-10-11T02:55:43.732Z,4.92
2022-10-11T02:58:20.000Z,4.89
2022-10-11T03:00:58.536Z,4.90
2022-10-11T03:03:34.635Z,4.77
2022-10-11T03:06:14.368Z,4.72
2022-10-11T03:08:53.157Z,4.76
2022-10-11T03:11:31.591Z,4.80
2022-10-11T03:14:11.294Z,4.76
2022-10-11T03:16:47.365Z,4.80
2022-10-11T03:19:26.185Z,4.81
2022-10-11T03:22:02.194Z,4.74
2022-10-11T03:24:40.937Z,4.68
2022-10-11T03:27:17.097Z,4.67
2022-10-11T03:29:54.666Z,4.63
2022-10-11T03:32:31.962Z,4.65
2022-10-11T03:35:10.700Z,4.59
2022-10-11T03:37:49.872Z,4.52
2022-10-11T03:40:27.095Z,4.53
2022-10-11T03:43:05.277Z,4.46
2022-10-11T03:45:44.365Z,4.48
2022-10-11T03:48:21.240Z,4.59
2022-10-11T03:51:00.018Z,4.57
2022-10-11T03:53:38.749Z,4.61
2022-10-11T03:56:24.141Z,4.61
2022-10-11T03:59:02.839Z,4.61
2022-10-11T04:01:41.115Z,4.63
2022-10-11T04:04:17.156Z,4.64
2022-10-11T04:06:53.764Z,4.62
2022-10-11T04:09:30.445Z,4.54
2022-10-11T04:12:09.146Z,4.46
2022-10-11T04:14:47.350Z,4.37
2022-10-11T04:17:23.472Z,4.32
2022-10-11T04:20:02.203Z,4.29
2022-10-11T04:22:40.450Z,4.25
2022-10-11T04:25:16.645Z,4.20
2022-10-11T04:27:55.288Z,4.16
2022-10-11T04:30:33.732Z,4.11
2022-10-11T04:33:11.597Z,4.07
2022-10-11T04:35:53.375Z,4.05
2022-10-11T04:38:29.274Z,4.05
2022-10-11T04:41:10.401Z,4.08
2022-10-11T04:43:49.395Z,4.13
2022-10-11T04:46:27.672Z,4.17
2022-10-11T04:49:06.194Z,4.19
2022-10-11T04:51:45.695Z,4.19
2022-10-11T04:54:25.428Z,4.18
2022-10-11T04:57:03.764Z,4.19
2022-10-11T04:59:45.432Z,4.19
2022-10-11T05:02:27.967Z,4.19
2022-10-11T05:05:04.428Z,4.22
2022-10-11T05:07:43.388Z,4.24
2022-10-11T05:10:21.069Z,4.28
2022-10-11T05:13:01.180Z,4.31
2022-10-11T05:15:39.286Z,4.35
2022-10-11T05:18:17.608Z,4.42
2022-10-11T05:21:09.502Z,4.46
2022-10-11T05:23:49.292Z,4.50
2022-10-11T05:26:28.560Z,4.54
2022-10-11T05:29:08.068Z,4.62
2022-10-11T05:31:48.209Z,4.71
2022-10-11T05:34:30.311Z,4.84
2022-10-11T05:37:09.101Z,4.98
2022-10-11T05:39:46.336Z,5.02
2022-10-11T05:42:25.618Z,5.03
2022-10-11T05:45:05.822Z,5.04
2022-10-11T05:47:43.074Z,5.08
2022-10-11T05:50:24.021Z,5.11
2022-10-11T05:53:01.731Z,5.16
2022-10-11T05:55:41.850Z,5.21
2022-10-11T05:58:19.438Z,5.25
2022-10-11T06:00:56.948Z,5.32
2022-10-11T06:03:33.992Z,5.38
2022-10-11T06:06:12.817Z,5.44
2022-10-11T06:08:50.361Z,5.50
2022-10-11T06:11:29.420Z,5.58
2022-10-11T06:14:21.194Z,5.65
2022-10-11T06:17:38.046Z,5.72
2022-10-11T06:20:39.710Z,5.82
2022-10-11T06:23:38.524Z,5.89
2022-10-11T06:26:35.373Z,5.98
2022-10-11T06:29:33.624Z,6.06
2022-10-11T06:32:45.490Z,6.11
2022-10-11T06:35:41.082Z,6.18
2022-10-11T06:38:45.171Z,6.25
2022-10-11T06:41:37.949Z,6.35
2022-10-11T06:44:14.953Z,6.41
2022-10-11T06:47:07.727Z,6.49
2022-10-11T06:50:06.340Z,6.55
2022-10-11T06:53:17.359Z,6.64
2022-10-11T06:55:54.294Z,6.69
2022-10-11T06:58:51.314Z,6.75
2022-10-11T07:01:27.784Z,6.81
2022-10-11T07:04:04.078Z,6.87
2022-10-11T07:06:56.384Z,6.94
2022-10-11T07:09:51.945Z,7.00
2022-10-11T07:12:50.627Z,7.13
2022-10-11T07:15:44.871Z,7.26
2022-10-11T07:18:41.566Z,7.32
2022-10-11T07:21:18.117Z,7.37
2022-10-11T07:23:54.708Z,7.41
2022-10-11T07:26:37.475Z,7.43
2022-10-11T07:29:40.646Z,7.49
2022-10-11T07:32:16.574Z,7.54
2022-10-11T07:35:12.562Z,7.63
2022-10-11T07:37:50.642Z,7.76
2022-10-11T07:40:44.012Z,7.84
2022-10-11T07:43:37.785Z,7.86
2022-10-11T07:46:48.246Z,7.96
2022-10-11T07:49:43.619Z,8.03
2022-10-11T07:52:47.940Z,8.03
2022-10-11T07:55:24.051Z,8.06
2022-10-11T07:58:20.125Z,8.03
2022-10-11T08:01:12.367Z,8.03
2022-10-11T08:04:05.097Z,8.11
2022-10-11T08:06:57.418Z,8.23
2022-10-11T08:09:34.287Z,8.30
2022-10-11T08:12:47.090Z,8.42
2022-10-11T08:15:43.737Z,8.52
2022-10-11T08:18:20.228Z,8.50
2022-10-11T08:20:56.755Z,8.50
2022-10-11T08:24:05.005Z,8.53
2022-10-11T08:27:00.499Z,8.52
2022-10-11T08:30:05.903Z,8.64
2022-10-11T08:33:06.182Z,8.72
2022-10-11T08:36:06.021Z,8.67
2022-10-11T08:39:05.650Z,8.58
2022-10-11T08:41:46.290Z,8.63
2022-10-11T08:45:12.858Z,8.69
2022-10-11T08:47:49.908Z,8.66
2022-10-11T08:50:44.554Z,8.69
2022-10-11T08:53:39.180Z,8.71
2022-10-11T08:56:17.573Z,8.72
2022-10-11T08:58:52.601Z,8.76
2022-10-11T09:01:23.817Z,8.82
2022-10-11T09:03:51.028Z,8.84
2022-10-11T09:06:35.648Z,8.88
2022-10-11T09:09:33.962Z,8.95
2022-10-11T09:12:16.267Z,9.10
2022-10-11T09:15:25.330Z,9.17
2022-10-11T09:18:06.835Z,9.15
2022-10-11T09:21:01.361Z,9.18
2022-10-11T09:23:48.455Z,9.26
2022-10-11T09:26:21.627Z,9.28
2022-10-11T09:29:24.043Z,9.32
2022-10-11T09:31:53.672Z,9.39
2022-10-11T09:34:22.034Z,9.49
2022-10-11T09:36:57.570Z,9.52
2022-10-11T09:39:34.321Z,9.62
2022-10-11T09:42:01.497Z,9.67
2022-10-11T09:44:29.658Z,9.82
2022-10-11T09:46:57.501Z,9.96
2022-10-11T09:49:44.356Z,10.08
2022-10-11T09:52:18.361Z,10.21
2022-10-11T09:54:46.833Z,10.14
2022-10-11T09:57:30.607Z,10.10
2022-10-11T09:59:59.318Z,10.06
2022-10-11T10:02:26.571Z,10.07
2022-10-11T10:05:22.387Z,10.02
2022-10-11T10:08:04.337Z,10.03
2022-10-11T10:10:31.744Z,10.00
2022-10-11T10:13:00.176Z,10.00
2022-10-11T10:15:29.959Z,10.00
2022-10-11T10:17:57.065Z,10.29
2022-10-11T10:20:28.966Z,11.01
2022-10-11T10:22:56.052Z,11.92
2022-10-11T10:25:31.969Z,12.89
2022-10-11T10:27:59.887Z,13.96
2022-10-11T10:30:28.342Z,14.84
2022-10-11T10:33:03.728Z,15.51
2022-10-11T10:35:32.553Z,16.13
2022-10-11T10:37:59.994Z,16.56
2022-10-11T10:40:46.873Z,16.76
2022-10-11T10:43:15.711Z,16.55
2022-10-11T10:45:57.364Z,16.54
2022-10-11T10:48:26.772Z,16.90
2022-10-11T10:50:58.879Z,16.94
2022-10-11T10:53:29.630Z,16.36
2022-10-11T10:55:59.273Z,16.17
2022-10-11T10:58:37.936Z,16.29
2022-10-11T11:01:13.809Z,16.67
2022-10-11T11:03:52.488Z,17.22
2022-10-11T11:06:26.907Z,17.44
2022-10-11T11:09:25.996Z,17.18
2022-10-11T11:12:03.088Z,17.18
2022-10-11T11:14:35.747Z,17.50
2022-10-11T11:17:17.873Z,17.87
2022-10-11T11:19:44.458Z,18.08
2022-10-11T11:22:23.098Z,18.28
2022-10-11T11:24:49.681Z,17.58
2022-10-11T11:27:22.154Z,17.09
2022-10-11T11:29:51.918Z,16.51
2022-10-11T11:32:45.449Z,16.14
2022-10-11T11:35:17.435Z,15.96
2022-10-11T11:37:46.887Z,15.91
2022-10-11T11:40:13.520Z,15.98
2022-10-11T11:42:52.503Z,16.24
2022-10-11T11:45:25.057Z,16.35
2022-10-11T11:47:56.885Z,16.25
2022-10-11T11:50:25.087Z,16.29
2022-10-11T11:52:58.062Z,16.63
2022-10-11T11:55:36.508Z,17.02
2022-10-11T11:58:07.420Z,17.42
2022-10-11T12:00:43.173Z,17.18
2022-10-11T12:03:12.984Z,16.94
2022-10-11T12:05:59.504Z,16.71
2022-10-11T12:08:28.188Z,16.81
2022-10-11T12:10:56.035Z,16.95
2022-10-11T12:13:32.015Z,16.96
2022-10-11T12:16:13.638Z,16.84
2022-10-11T12:19:08.239Z,16.70
2022-10-11T12:21:36.909Z,16.77
2022-10-11T12:24:06.236Z,17.10
2022-10-11T12:26:35.401Z,16.44
2022-10-11T12:29:04.929Z,16.13
2022-10-11T12:31:32.982Z,16.20
2022-10-11T12:34:16.420Z,16.53
2022-10-11T12:36:45.001Z,16.78
2022-10-11T12:39:20.942Z,16.90
2022-10-11T12:41:47.544Z,16.53
2022-10-11T12:44:28.252Z,16.30
2022-10-11T12:46:55.004Z,16.33
2022-10-11T12:49:34.003Z,16.41
2022-10-11T12:52:19.533Z,16.52
2022-10-11T12:55:04.611Z,16.66
2022-10-11T12:57:31.207Z,16.67
2022-10-11T13:00:07.730Z,16.77
2022-10-11T13:02:40.516Z,17.00
2022-10-11T13:05:27.510Z,16.67
2022-10-11T13:07:57.415Z,16.45
2022-10-11T13:10:29.397Z,16.55
2022-10-11T13:12:59.602Z,16.44
2022-10-11T13:15:26.642Z,16.15
2022-10-11T13:17:58.868Z,15.80
2022-10-11T13:20:26.356Z,15.41
2022-10-11T13:22:53.801Z,15.13
2022-10-11T13:25:22.483Z,14.88
2022-10-11T13:27:50.111Z,14.73
2022-10-11T13:30:34.373Z,14.60
2022-10-11T13:33:04.832Z,14.42
2022-10-11T13:35:31.399Z,14.27
2022-10-11T13:37:58.418Z,14.14
2022-10-11T13:40:25.449Z,14.03
2022-10-11T13:42:53.032Z,14.13
2022-10-11T13:45:24.604Z,14.39
2022-10-11T13:47:52.306Z,14.70
2022-10-11T13:50:19.117Z,15.10
2022-10-11T13:52:54.592Z,15.52
2022-10-11T13:55:29.412Z,15.59
2022-10-11T13:57:58.019Z,15.81
2022-10-11T14:00:30.333Z,16.02
2022-10-11T14:02:59.273Z,16.06
2022-10-11T14:05:30.751Z,16.17
2022-10-11T14:07:58.598Z,15.96
2022-10-11T14:10:26.065Z,15.23
2022-10-11T14:13:00.593Z,14.59
2022-10-11T14:15:31.066Z,13.98
2022-10-11T14:17:58.769Z,13.41
2022-10-11T14:20:33.589Z,13.09
2022-10-11T14:23:00.185Z,12.82
2022-10-11T14:25:26.866Z,12.62
2022-10-11T14:27:54.672Z,12.48
2022-10-11T14:30:27.242Z,12.24
2022-10-11T14:32:55.840Z,11.95
2022-10-11T14:35:24.629Z,11.76
2022-10-11T14:37:51.656Z,11.46
2022-10-11T14:40:20.592Z,11.34
2022-10-11T14:42:47.538Z,11.24
2022-10-11T14:45:14.177Z,11.15
2022-10-11T14:47:43.097Z,11.04
2022-10-11T14:50:28.460Z,10.93
2022-10-11T14:52:55.243Z,10.82
2022-10-11T14:55:22.162Z,10.72
2022-10-11T14:57:49.182Z,10.60
2022-10-11T15:00:22.269Z,10.52
2022-10-11T15:02:49.563Z,10.40
2022-10-11T15:05:16.176Z,10.25
2022-10-11T15:07:42.834Z,10.09
2022-10-11T15:10:29.780Z,9.94
2022-10-11T15:12:56.757Z,9.77
2022-10-11T15:15:24.887Z,9.62
2022-10-11T15:17:54.017Z,9.48
2022-10-11T15:20:28.860Z,9.33
2022-10-11T15:22:56.207Z,9.19
2022-10-11T15:25:23.422Z,9.08
2022-10-11T15:27:50.405Z,8.96
2022-10-11T15:30:28.222Z,8.86
2022-10-11T15:32:55.002Z,8.77
2022-10-11T15:35:23.020Z,8.67
2022-10-11T15:37:53.867Z,8.59
2022-10-11T15:40:25.243Z,8.52
2022-10-11T15:42:53.142Z,8.47
2022-10-11T15:45:22.908Z,8.43
2022-10-11T15:47:51.561Z,8.36
2022-10-11T15:50:34.669Z,8.29
2022-10-11T15:53:13.282Z,8.22
2022-10-11T15:55:41.868Z,8.17
2022-10-11T15:58:19.210Z,8.13
2022-10-11T16:00:46.520Z,8.08
2022-10-11T16:03:14.357Z,8.02
2022-10-11T16:05:41.671Z,7.98
2022-10-11T16:08:08.540Z,7.91
2022-10-11T16:10:35.507Z,7.82
2022-10-11T16:13:02.172Z,7.73
2022-10-11T16:15:28.833Z,7.67
2022-10-11T16:17:55.514Z,7.59
2022-10-11T16:20:24.593Z,7.53
2022-10-11T16:22:52.949Z,7.50
2022-10-11T16:25:20.365Z,7.45
2022-10-11T16:27:47.002Z,7.35
2022-10-11T16:30:14.894Z,7.24
2022-10-11T16:32:42.044Z,7.16
2022-10-11T16:35:08.956Z,7.04
2022-10-11T16:37:36.357Z,6.96
2022-10-11T16:40:03.370Z,6.89
2022-10-11T16:42:30.760Z,6.86
2022-10-11T16:44:57.364Z,6.84
2022-10-11T16:47:23.963Z,6.82
2022-10-11T16:49:50.589Z,6.80
2022-10-11T16:52:17.351Z,6.80
2022-10-11T16:54:44.935Z,6.79
2022-10-11T16:57:12.359Z,6.78
2022-10-11T16:59:39.084Z,6.77
2022-10-11T17:02:06.130Z,6.71
2022-10-11T17:04:32.879Z,6.66
2022-10-11T17:06:59.774Z,6.63
2022-10-11T17:09:26.457Z,6.60
2022-10-11T17:11:53.137Z,6.57
2022-10-11T17:14:21.743Z,6.53
2022-10-11T17:16:48.479Z,6.50
2022-10-11T17:19:16.398Z,6.48
2022-10-11T17:21:43.225Z,6.44
2022-10-11T17:24:10.049Z,6.41
2022-10-11T17:26:36.737Z,6.37
2022-10-11T17:29:03.389Z,6.34
2022-10-11T17:31:30.712Z,6.29
2022-10-11T17:34:00.469Z,6.26
2022-10-11T17:36:30.481Z,6.23
2022-10-11T17:38:58.051Z,6.19
2022-10-11T17:41:29.466Z,6.17
2022-10-11T17:43:59.316Z,6.17
2022-10-11T17:46:27.714Z,6.18
2022-10-11T17:48:55.689Z,6.17
2022-10-11T17:51:22.863Z,6.16
2022-10-11T17:53:50.969Z,6.16
2022-10-11T17:56:21.799Z,6.18
2022-10-11T17:58:52.705Z,6.17
2022-10-11T18:01:20.368Z,6.15
2022-10-11T18:04:06.361Z,6.16
2022-10-11T18:06:37.632Z,6.15
2022-10-11T18:09:04.366Z,6.12
2022-10-11T18:11:31.411Z,6.08
2022-10-11T18:13:58.087Z,6.05
2022-10-11T18:16:26.991Z,6.02
2022-10-11T18:18:54.397Z,6.01
2022-10-11T18:21:21.041Z,6.00
2022-10-11T18:23:47.718Z,5.96
2022-10-11T18:26:16.269Z,5.91
2022-10-11T18:28:43.255Z,5.85
2022-10-11T18:31:13.499Z,5.80
2022-10-11T18:33:41.210Z,5.74
2022-10-11T18:36:09.292Z,5.70
2022-10-11T18:38:37.726Z,5.68
2022-10-11T18:41:08.601Z,5.65
2022-10-11T18:43:35.979Z,5.63
2022-10-11T18:46:06.283Z,5.60
2022-10-11T18:48:33.315Z,5.59
2022-10-11T18:51:07.763Z,5.58
2022-10-11T18:53:35.285Z,5.57
2022-10-11T18:56:03.173Z,5.53
2022-10-11T18:58:30.331Z,5.50
2022-10-11T19:01:03.499Z,5.48
2022-10-11T19:03:34.839Z,5.47
2022-10-11T19:06:03.423Z,5.46
2022-10-11T19:08:30.239Z,5.45
2022-10-11T19:10:56.973Z,5.42
2022-10-11T19:13:23.681Z,5.41
2022-10-11T19:15:50.287Z,5.40
2022-10-11T19:18:20.354Z,5.37
2022-10-11T19:20:47.271Z,5.32
2022-10-11T19:23:13.882Z,5.29
2022-10-11T19:25:40.485Z,5.25
2022-10-11T19:28:07.190Z,5.24
2022-10-11T19:30:33.774Z,5.21
2022-10-11T19:33:01.021Z,5.19
2022-10-11T19:35:27.763Z,5.18
2022-10-11T19:37:54.363Z,5.16
2022-10-11T19:40:20.957Z,5.14
2022-10-11T19:42:47.630Z,5.11
2022-10-11T19:45:14.284Z,5.05
2022-10-11T19:47:40.947Z,5.02
2022-10-11T19:50:07.779Z,4.96
2022-10-11T19:52:34.669Z,4.89
2022-10-11T19:55:01.410Z,4.84
2022-10-11T19:57:28.006Z,4.80
2022-10-11T19:59:54.588Z,4.76
2022-10-11T20:02:21.277Z,4.72
2022-10-11T20:04:53.208Z,4.69
2022-10-11T20:07:20.070Z,4.65
2022-10-11T20:09:46.711Z,4.62
2022-10-11T20:12:13.310Z,4.59
2022-10-11T20:14:39.909Z,4.58
2022-10-11T20:17:06.572Z,4.57
2022-10-11T20:19:33.151Z,4.57
2022-10-11T20:22:00.727Z,4.52
2022-10-11T20:24:29.445Z,4.48
2022-10-11T20:26:56.044Z,4.47
2022-10-11T20:29:23.576Z,4.44
2022-10-11T20:31:50.272Z,4.38
2022-10-11T20:34:17.201Z,4.31
2022-10-11T20:36:48.230Z,4.26
2022-10-11T20:39:16.028Z,4.24
2022-10-11T20:41:42.935Z,4.22
2022-10-11T20:44:09.828Z,4.19
2022-10-11T20:46:37.901Z,4.18
2022-10-11T20:49:06.303Z,4.16
2022-10-11T20:51:34.220Z,4.12
2022-10-11T20:54:02.151Z,4.11
2022-10-11T20:56:29.834Z,4.10
2022-10-11T20:58:57.312Z,4.08
2022-10-11T21:01:26.353Z,4.08
2022-10-11T21:03:53.553Z,4.06
2022-10-11T21:06:20.537Z,4.05
2022-10-11T21:08:47.099Z,4.04
2022-10-11T21:11:13.732Z,4.03
2022-10-11T21:13:40.541Z,4.00
2022-10-11T21:16:10.824Z,3.99
2022-10-11T21:18:37.783Z,3.98
2022-10-11T21:21:05.299Z,3.96
2022-10-11T21:23:31.905Z,3.93
2022-10-11T21:26:02.295Z,3.92
2022-10-11T21:28:29.603Z,3.93
2022-10-11T21:31:02.228Z,3.92
2022-10-11T21:33:30.161Z,3.86
2022-10-11T21:35:57.532Z,3.77
2022-10-11T21:38:24.111Z,3.75
2022-10-11T21:40:50.713Z,3.72
2022-10-11T21:43:17.348Z,3.71
2022-10-11T21:45:44.024Z,3.70
2022-10-11T21:48:10.633Z,3.71
2022-10-11T21:50:37.233Z,3.71
2022-10-11T21:53:03.883Z,3.71
2022-10-11T21:55:30.560Z,3.69
2022-10-11T21:57:57.233Z,3.66
2022-10-11T22:00:24.021Z,3.63
2022-10-11T22:02:51.922Z,3.63
2022-10-11T22:05:18.902Z,3.63
2022-10-11T22:07:45.629Z,3.62
2022-10-11T22:10:12.291Z,3.61
2022-10-11T22:12:38.937Z,3.59
2022-10-11T22:15:05.884Z,3.61
2022-10-11T22:17:32.493Z,3.60
2022-10-11T22:19:59.099Z,3.60
2022-10-11T22:22:25.709Z,3.61
2022-10-11T22:24:52.455Z,3.59
2022-10-11T22:27:19.104Z,3.58
2022-10-11T22:29:45.699Z,3.56
2022-10-11T22:32:12.324Z,3.54
2022-10-11T22:34:38.962Z,3.53
2022-10-11T22:37:05.569Z,3.51
2022-10-11T22:39:32.202Z,3.48
2022-10-11T22:41:59.145Z,3.44
2022-10-11T22:44:25.735Z,3.39
2022-10-11T22:46:52.365Z,3.36
2022-10-11T22:49:18.970Z,3.33
2022-10-11T22:51:45.684Z,3.31
2022-10-11T22:54:12.379Z,3.29
2022-10-11T22:56:39.010Z,3.30
2022-10-11T22:59:05.682Z,3.30
2022-10-11T23:01:32.300Z,3.30
2022-10-11T23:03:59.065Z,3.30
2022-10-11T23:06:25.741Z,3.30
2022-10-11T23:08:52.380Z,3.26
2022-10-11T23:11:18.992Z,3.22
2022-10-11T23:13:45.648Z,3.22
2022-10-11T23:16:12.891Z,3.23
2022-10-11T23:18:39.718Z,3.23
2022-10-11T23:21:06.830Z,3.20
2022-10-11T23:23:33.629Z,3.18
2022-10-11T23:26:11.587Z,3.16
2022-10-11T23:28:38.342Z,3.16
2022-10-11T23:31:09.072Z,3.16
2022-10-11T23:33:35.924Z,3.14
2022-10-11T23:36:02.824Z,3.11
2022-10-11T23:38:29.527Z,3.11
2022-10-11T23:40:56.138Z,3.10
2022-10-11T23:43:22.968Z,3.09
2022-10-11T23:45:49.620Z,3.07
2022-10-11T23:48:16.196Z,3.06
2022-10-11T23:50:42.767Z,3.05
2022-10-11T23:53:10.165Z,3.04
2022-10-11T23:55:36.725Z,3.00
2022-10-11T23:58:03.329Z,2.99
